Terminal Aerodrome Forecast
Issued by NWS Bismarck, ND

Home | Current Version | Previous Version | Graphics & Text | Print | Product List | Glossary On
Versions: 1 2 3 4 5 6 7 8 9 10 11 12 13 14 15 16 17 18 19 20
256
FTUS43 KBIS 182331
TAFISN
TAF
KISN 182331Z 1900/1924 17004KT P6SM SKC
     FM191300 21008KT P6SM FEW250
     FM191700 27014G21KT P6SM FEW250
     FM192000 30019G27KT P6SM FEW250=

USA.gov is the U.S. government's official web portal to all federal, state and local government web resources and services.